sensor_id;sensor_type;location;lat;lon;timestamp;pressure;altitude;pressure_sealevel;temperature;humidity
75136;BME280;63707;52.212;9.540;2023-08-06T00:00:15;98601.25;;;13.03;100.00
75136;BME280;63707;52.212;9.540;2023-08-06T00:02:40;98619.31;;;13.04;100.00
75136;BME280;63707;52.212;9.540;2023-08-06T00:05:06;98602.28;;;12.97;100.00
75136;BME280;63707;52.212;9.540;2023-08-06T00:07:33;98643.41;;;13.07;100.00
75136;BME280;63707;52.212;9.540;2023-08-06T00:09:59;98650.78;;;13.06;100.00
75136;BME280;63707;52.212;9.540;2023-08-06T00:12:24;98622.88;;;13.04;100.00
75136;BME280;63707;52.212;9.540;2023-08-06T00:14:50;98647.28;;;13.11;100.00
75136;BME280;63707;52.212;9.540;2023-08-06T00:17:16;98653.00;;;13.09;100.00
75136;BME280;63707;52.212;9.540;2023-08-06T00:19:41;99225.16;;;13.11;100.00
75136;BME280;63707;52.212;9.540;2023-08-06T00:22:07;99204.25;;;13.05;100.00
75136;BME280;63707;52.212;9.540;2023-08-06T00:24:33;99175.34;;;13.09;100.00
75136;BME280;63707;52.212;9.540;2023-08-06T00:26:59;99151.22;;;13.06;100.00
75136;BME280;63707;52.212;9.540;2023-08-06T00:29:25;99129.09;;;13.08;100.00
75136;BME280;63707;52.212;9.540;2023-08-06T00:31:50;99128.75;;;13.04;100.00
75136;BME280;63707;52.212;9.540;2023-08-06T00:34:23;99121.56;;;13.15;100.00
75136;BME280;63707;52.212;9.540;2023-08-06T00:36:49;99109.63;;;13.04;100.00
75136;BME280;63707;52.212;9.540;2023-08-06T00:39:14;99106.53;;;13.01;100.00
75136;BME280;63707;52.212;9.540;2023-08-06T00:41:40;98926.47;;;13.09;100.00
75136;BME280;63707;52.212;9.540;2023-08-06T00:44:05;98881.75;;;12.99;100.00
75136;BME280;63707;52.212;9.540;2023-08-06T00:46:31;98843.47;;;12.99;100.00
75136;BME280;63707;52.212;9.540;2023-08-06T00:48:57;98832.84;;;13.02;100.00
75136;BME280;63707;52.212;9.540;2023-08-06T00:51:24;98816.69;;;13.01;100.00
75136;BME280;63707;52.212;9.540;2023-08-06T00:53:52;98807.28;;;12.91;100.00
75136;BME280;63707;52.212;9.540;2023-08-06T00:56:17;98788.13;;;12.91;100.00
75136;BME280;63707;52.212;9.540;2023-08-06T00:58:44;98947.22;;;12.88;100.00
75136;BME280;63707;52.212;9.540;2023-08-06T01:01:10;98968.50;;;12.86;100.00
75136;BME280;63707;52.212;9.540;2023-08-06T01:03:36;98964.28;;;12.79;100.00
75136;BME280;63707;52.212;9.540;2023-08-06T01:06:01;98959.47;;;12.86;100.00
75136;BME280;63707;52.212;9.540;2023-08-06T01:08:41;98954.66;;;12.93;100.00
75136;BME280;63707;52.212;9.540;2023-08-06T01:11:18;98959.06;;;12.94;100.00
75136;BME280;63707;52.212;9.540;2023-08-06T01:13:47;98952.09;;;12.86;100.00
75136;BME280;63707;52.212;9.540;2023-08-06T01:16:19;98948.22;;;12.82;100.00
75136;BME280;63707;52.212;9.540;2023-08-06T01:18:47;98949.28;;;12.81;100.00
75136;BME280;63707;52.212;9.540;2023-08-06T01:21:16;98946.84;;;12.68;100.00
75136;BME280;63707;52.212;9.540;2023-08-06T01:23:42;98944.19;;;12.73;100.00
75136;BME280;63707;52.212;9.540;2023-08-06T01:26:13;98944.44;;;12.72;100.00
75136;BME280;63707;52.212;9.540;2023-08-06T01:28:45;98942.22;;;12.69;100.00
75136;BME280;63707;52.212;9.540;2023-08-06T01:31:18;98947.59;;;12.64;100.00
75136;BME280;63707;52.212;9.540;2023-08-06T01:33:47;98948.91;;;12.61;100.00
75136;BME280;63707;52.212;9.540;2023-08-06T01:36:17;98946.34;;;12.54;100.00
75136;BME280;63707;52.212;9.540;2023-08-06T01:38:44;98945.03;;;12.57;100.00
75136;BME280;63707;52.212;9.540;2023-08-06T01:41:09;98940.53;;;12.51;100.00
75136;BME280;63707;52.212;9.540;2023-08-06T01:43:35;98945.50;;;12.54;100.00
75136;BME280;63707;52.212;9.540;2023-08-06T01:46:00;98943.78;;;12.48;100.00
75136;BME280;63707;52.212;9.540;2023-08-06T01:48:26;98944.09;;;12.51;100.00
75136;BME280;63707;52.212;9.540;2023-08-06T01:50:51;98936.97;;;12.50;100.00
75136;BME280;63707;52.212;9.540;2023-08-06T01:53:18;98942.69;;;12.49;100.00
75136;BME280;63707;52.212;9.540;2023-08-06T01:55:47;98941.88;;;12.48;100.00
75136;BME280;63707;52.212;9.540;2023-08-06T01:58:13;98940.22;;;12.47;100.00
75136;BME280;63707;52.212;9.540;2023-08-06T02:00:38;98931.50;;;12.50;100.00
75136;BME280;63707;52.212;9.540;2023-08-06T02:03:04;98935.31;;;12.49;100.00
75136;BME280;63707;52.212;9.540;2023-08-06T02:05:29;98933.66;;;12.48;100.00
75136;BME280;63707;52.212;9.540;2023-08-06T02:07:55;98932.75;;;12.43;100.00
75136;BME280;63707;52.212;9.540;2023-08-06T02:10:22;98930.59;;;12.45;100.00
75136;BME280;63707;52.212;9.540;2023-08-06T02:12:47;98934.81;;;12.36;100.00
75136;BME280;63707;52.212;9.540;2023-08-06T02:15:13;98930.03;;;12.43;100.00
75136;BME280;63707;52.212;9.540;2023-08-06T02:17:38;98934.66;;;12.42;100.00
75136;BME280;63707;52.212;9.540;2023-08-06T02:20:05;98934.41;;;12.44;100.00
75136;BME280;63707;52.212;9.540;2023-08-06T02:22:30;98926.13;;;12.39;100.00
75136;BME280;63707;52.212;9.540;2023-08-06T02:24:56;98920.84;;;12.49;100.00
75136;BME280;63707;52.212;9.540;2023-08-06T02:27:23;98930.34;;;12.46;100.00
75136;BME280;63707;52.212;9.540;2023-08-06T02:29:48;98920.84;;;12.49;100.00
75136;BME280;63707;52.212;9.540;2023-08-06T02:32:14;98923.31;;;12.50;100.00
75136;BME280;63707;52.212;9.540;2023-08-06T02:34:39;98920.59;;;12.50;100.00
75136;BME280;63707;52.212;9.540;2023-08-06T02:37:05;98918.69;;;12.51;100.00
75136;BME280;63707;52.212;9.540;2023-08-06T02:39:30;98916.03;;;12.56;100.00
75136;BME280;63707;52.212;9.540;2023-08-06T02:41:56;98920.34;;;12.52;100.00
75136;BME280;63707;52.212;9.540;2023-08-06T02:44:23;98920.09;;;12.53;100.00
75136;BME280;63707;52.212;9.540;2023-08-06T02:46:48;98917.84;;;12.50;100.00
75136;BME280;63707;52.212;9.540;2023-08-06T02:49:14;98913.97;;;12.46;100.00
75136;BME280;63707;52.212;9.540;2023-08-06T02:51:39;98913.22;;;12.51;100.00
75136;BME280;63707;52.212;9.540;2023-08-06T02:54:04;98910.56;;;12.56;100.00
75136;BME280;63707;52.212;9.540;2023-08-06T02:56:30;98904.94;;;12.63;100.00
75136;BME280;63707;52.212;9.540;2023-08-06T02:58:56;98903.28;;;12.61;100.00
75136;BME280;63707;52.212;9.540;2023-08-06T03:01:22;98890.13;;;12.58;100.00
75136;BME280;63707;52.212;9.540;2023-08-06T03:03:48;98891.53;;;12.61;100.00
75136;BME280;63707;52.212;9.540;2023-08-06T03:06:14;98885.00;;;12.62;100.00
75136;BME280;63707;52.212;9.540;2023-08-06T03:08:39;98876.22;;;12.60;100.00
75136;BME280;63707;52.212;9.540;2023-08-06T03:11:05;98873.56;;;12.65;100.00
75136;BME280;63707;52.212;9.540;2023-08-06T03:13:30;98878.34;;;12.75;100.00
75136;BME280;63707;52.212;9.540;2023-08-06T03:15:57;98878.84;;;12.72;100.00
75136;BME280;63707;52.212;9.540;2023-08-06T03:18:24;98879.03;;;12.65;100.00
75136;BME280;63707;52.212;9.540;2023-08-06T03:20:51;98874.56;;;12.59;100.00
75136;BME280;63707;52.212;9.540;2023-08-06T03:23:17;98874.38;;;12.49;100.00
75136;BME280;63707;52.212;9.540;2023-08-06T03:25:42;98869.66;;;12.44;100.00
75136;BME280;63707;52.212;9.540;2023-08-06T03:28:08;98860.91;;;12.42;100.00
75136;BME280;63707;52.212;9.540;2023-08-06T03:30:33;98862.88;;;12.47;100.00
75136;BME280;63707;52.212;9.540;2023-08-06T03:32:59;98862.72;;;12.37;100.00
75136;BME280;63707;52.212;9.540;2023-08-06T03:35:26;98855.63;;;12.24;100.00
75136;BME280;63707;52.212;9.540;2023-08-06T03:37:51;98865.41;;;12.20;100.00
75136;BME280;63707;52.212;9.540;2023-08-06T03:40:17;98857.72;;;12.17;100.00
75136;BME280;63707;52.212;9.540;2023-08-06T03:42:42;98864.25;;;12.16;100.00
75136;BME280;63707;52.212;9.540;2023-08-06T03:45:08;98868.94;;;12.04;100.00
75136;BME280;63707;52.212;9.540;2023-08-06T03:47:34;98870.09;;;12.08;100.00
75136;BME280;63707;52.212;9.540;2023-08-06T03:49:59;98859.25;;;11.96;100.00
75136;BME280;63707;52.212;9.540;2023-08-06T03:52:26;98850.38;;;11.89;100.00
75136;BME280;63707;52.212;9.540;2023-08-06T03:54:52;98852.53;;;11.87;100.00
75136;BME280;63707;52.212;9.540;2023-08-06T03:57:17;98856.34;;;11.86;100.00
75136;BME280;63707;52.212;9.540;2023-08-06T03:59:43;98850.75;;;11.81;100.00
75136;BME280;63707;52.212;9.540;2023-08-06T04:02:08;98848.72;;;11.76;100.00
75136;BME280;63707;52.212;9.540;2023-08-06T04:04:34;98839.59;;;11.71;100.00
75136;BME280;63707;52.212;9.540;2023-08-06T04:06:59;98836.38;;;11.74;100.00
75136;BME280;63707;52.212;9.540;2023-08-06T04:09:28;98833.81;;;11.67;100.00
75136;BME280;63707;52.212;9.540;2023-08-06T04:11:53;98831.56;;;11.64;100.00
75136;BME280;63707;52.212;9.540;2023-08-06T04:14:19;98837.63;;;11.66;100.00
75136;BME280;63707;52.212;9.540;2023-08-06T04:16:44;98846.03;;;11.64;100.00
75136;BME280;63707;52.212;9.540;2023-08-06T04:19:10;98842.38;;;11.59;100.00
75136;BME280;63707;52.212;9.540;2023-08-06T04:21:35;98852.47;;;11.58;100.00
75136;BME280;63707;52.212;9.540;2023-08-06T04:24:01;98852.72;;;11.57;100.00
75136;BME280;63707;52.212;9.540;2023-08-06T04:26:28;98850.31;;;11.60;100.00
75136;BME280;63707;52.212;9.540;2023-08-06T04:28:53;98854.38;;;11.58;100.00
75136;BME280;63707;52.212;9.540;2023-08-06T04:31:19;98847.69;;;11.65;100.00
75136;BME280;63707;52.212;9.540;2023-08-06T04:33:44;98844.72;;;11.67;100.00
75136;BME280;63707;52.212;9.540;2023-08-06T04:36:10;98849.84;;;11.63;100.00
75136;BME280;63707;52.212;9.540;2023-08-06T04:38:36;98848.63;;;11.71;100.00
75136;BME280;63707;52.212;9.540;2023-08-06T04:41:02;98845.16;;;11.76;100.00
75136;BME280;63707;52.212;9.540;2023-08-06T04:43:29;98860.47;;;11.77;100.00
75136;BME280;63707;52.212;9.540;2023-08-06T04:45:55;98859.53;;;11.83;100.00
75136;BME280;63707;52.212;9.540;2023-08-06T04:48:21;98857.50;;;11.90;100.00
75136;BME280;63707;52.212;9.540;2023-08-06T04:50:47;98861.53;;;11.87;100.00
75136;BME280;63707;52.212;9.540;2023-08-06T04:53:13;98868.75;;;11.93;100.00
75136;BME280;63707;52.212;9.540;2023-08-06T04:55:39;98865.88;;;12.00;100.00
75136;BME280;63707;52.212;9.540;2023-08-06T04:58:05;98875.91;;;12.11;100.00
75136;BME280;63707;52.212;9.540;2023-08-06T05:00:32;98869.78;;;12.21;100.00
75136;BME280;63707;52.212;9.540;2023-08-06T05:02:59;98876.66;;;12.23;100.00
75136;BME280;63707;52.212;9.540;2023-08-06T05:05:24;98896.81;;;12.34;100.00
75136;BME280;63707;52.212;9.540;2023-08-06T05:07:50;98891.69;;;12.38;100.00
75136;BME280;63707;52.212;9.540;2023-08-06T05:10:16;98888.22;;;12.42;100.00
75136;BME280;63707;52.212;9.540;2023-08-06T05:12:41;98887.81;;;12.50;100.00
75136;BME280;63707;52.212;9.540;2023-08-06T05:15:08;98887.06;;;12.55;100.00
75136;BME280;63707;52.212;9.540;2023-08-06T05:17:35;98885.91;;;12.51;100.00
75136;BME280;63707;52.212;9.540;2023-08-06T05:20:00;98887.22;;;12.48;100.00
75136;BME280;63707;52.212;9.540;2023-08-06T05:22:26;98890.88;;;12.54;100.00
75136;BME280;63707;52.212;9.540;2023-08-06T05:24:51;98890.69;;;12.60;100.00
75136;BME280;63707;52.212;9.540;2023-08-06T05:27:17;98899.31;;;12.69;100.00
75136;BME280;63707;52.212;9.540;2023-08-06T05:29:44;98900.31;;;12.80;100.00
75136;BME280;63707;52.212;9.540;2023-08-06T05:32:10;98907.53;;;12.86;100.00
75136;BME280;63707;52.212;9.540;2023-08-06T05:34:36;98900.38;;;13.02;100.00
75136;BME280;63707;52.212;9.540;2023-08-06T05:37:02;98890.84;;;13.04;100.00
75136;BME280;63707;52.212;9.540;2023-08-06T05:39:28;98894.09;;;13.01;100.00
75136;BME280;63707;52.212;9.540;2023-08-06T05:41:53;98895.53;;;12.87;100.00
75136;BME280;63707;52.212;9.540;2023-08-06T05:44:20;98891.63;;;12.83;100.00
75136;BME280;63707;52.212;9.540;2023-08-06T05:46:45;98891.28;;;12.96;100.00
75136;BME280;63707;52.212;9.540;2023-08-06T05:49:11;98885.06;;;13.01;100.00
75136;BME280;63707;52.212;9.540;2023-08-06T05:51:39;98883.88;;;13.13;100.00
75136;BME280;63707;52.212;9.540;2023-08-06T05:54:05;98889.84;;;13.10;100.00
75136;BME280;63707;52.212;9.540;2023-08-06T05:56:30;98892.50;;;13.22;100.00
75136;BME280;63707;52.212;9.540;2023-08-06T05:58:56;98887.72;;;13.29;100.00
75136;BME280;63707;52.212;9.540;2023-08-06T06:01:21;98889.69;;;13.17;100.00
75136;BME280;63707;52.212;9.540;2023-08-06T06:03:47;98884.34;;;13.44;100.00
75136;BME280;63707;52.212;9.540;2023-08-06T06:06:12;98883.19;;;13.62;100.00
75136;BME280;63707;52.212;9.540;2023-08-06T06:08:39;98876.84;;;14.05;100.00
75136;BME280;63707;52.212;9.540;2023-08-06T06:11:05;98883.94;;;14.01;100.00
75136;BME280;63707;52.212;9.540;2023-08-06T06:13:30;98870.25;;;14.28;100.00
75136;BME280;63707;52.212;9.540;2023-08-06T06:15:56;98877.22;;;14.40;100.00
75136;BME280;63707;52.212;9.540;2023-08-06T06:18:21;98871.63;;;14.57;100.00
75136;BME280;63707;52.212;9.540;2023-08-06T06:20:47;98865.06;;;14.58;100.00
75136;BME280;63707;52.212;9.540;2023-08-06T06:23:12;98862.31;;;14.58;100.00
75136;BME280;63707;52.212;9.540;2023-08-06T06:25:43;98863.72;;;14.61;100.00
75136;BME280;63707;52.212;9.540;2023-08-06T06:28:09;98841.28;;;16.61;100.00
75136;BME280;63707;52.212;9.540;2023-08-06T06:30:34;98843.19;;;16.81;100.00
75136;BME280;63707;52.212;9.540;2023-08-06T06:33:00;98832.72;;;16.53;100.00
75136;BME280;63707;52.212;9.540;2023-08-06T06:35:25;98832.91;;;15.95;100.00
75136;BME280;63707;52.212;9.540;2023-08-06T06:37:51;98830.75;;;15.35;100.00
75136;BME280;63707;52.212;9.540;2023-08-06T06:40:17;98832.38;;;15.26;100.00
75136;BME280;63707;52.212;9.540;2023-08-06T06:42:43;98843.09;;;15.32;100.00
75136;BME280;63707;52.212;9.540;2023-08-06T06:45:09;98842.81;;;15.34;100.00
75136;BME280;63707;52.212;9.540;2023-08-06T06:47:35;98835.94;;;15.94;100.00
75136;BME280;63707;52.212;9.540;2023-08-06T06:50:00;98842.59;;;16.13;100.00
75136;BME280;63707;52.212;9.540;2023-08-06T06:52:26;98837.66;;;16.20;100.00
75136;BME280;63707;52.212;9.540;2023-08-06T06:54:51;98846.72;;;16.16;100.00
75136;BME280;63707;52.212;9.540;2023-08-06T06:57:16;98844.25;;;16.40;100.00
75136;BME280;63707;52.212;9.540;2023-08-06T06:59:44;98836.03;;;16.45;100.00
75136;BME280;63707;52.212;9.540;2023-08-06T07:02:09;98832.19;;;16.56;100.00
75136;BME280;63707;52.212;9.540;2023-08-06T07:04:34;98839.06;;;16.63;100.00
75136;BME280;63707;52.212;9.540;2023-08-06T07:07:00;98840.16;;;16.88;100.00
75136;BME280;63707;52.212;9.540;2023-08-06T07:09:26;98831.00;;;17.33;100.00
75136;BME280;63707;52.212;9.540;2023-08-06T07:11:52;98827.94;;;18.09;100.00
75136;BME280;63707;52.212;9.540;2023-08-06T07:14:17;98816.34;;;19.09;100.00
75136;BME280;63707;52.212;9.540;2023-08-06T07:16:44;98825.16;;;18.82;100.00
75136;BME280;63707;52.212;9.540;2023-08-06T07:19:09;98825.16;;;18.48;100.00
75136;BME280;63707;52.212;9.540;2023-08-06T07:21:35;98815.94;;;19.21;100.00
75136;BME280;63707;52.212;9.540;2023-08-06T07:24:00;98819.66;;;19.35;100.00
75136;BME280;63707;52.212;9.540;2023-08-06T07:26:26;98811.50;;;19.49;100.00
75136;BME280;63707;52.212;9.540;2023-08-06T07:28:52;98823.84;;;18.75;100.00
75136;BME280;63707;52.212;9.540;2023-08-06T07:31:17;98824.06;;;18.83;100.00
75136;BME280;63707;52.212;9.540;2023-08-06T07:33:44;98807.06;;;19.24;100.00
75136;BME280;63707;52.212;9.540;2023-08-06T07:36:11;98819.25;;;18.65;100.00
75136;BME280;63707;52.212;9.540;2023-08-06T07:38:37;98818.88;;;19.06;100.00
75136;BME280;63707;52.212;9.540;2023-08-06T07:41:03;98827.94;;;19.11;100.00
75136;BME280;63707;52.212;9.540;2023-08-06T07:43:28;98830.41;;;18.84;100.00
75136;BME280;63707;52.212;9.540;2023-08-06T07:45:54;98846.13;;;18.49;100.00
75136;BME280;63707;52.212;9.540;2023-08-06T07:48:22;98849.13;;;18.87;100.00
75136;BME280;63707;52.212;9.540;2023-08-06T07:50:52;98851.13;;;18.81;100.00
75136;BME280;63707;52.212;9.540;2023-08-06T07:53:19;98856.34;;;18.44;100.00
75136;BME280;63707;52.212;9.540;2023-08-06T07:55:48;98859.34;;;19.44;100.00
75136;BME280;63707;52.212;9.540;2023-08-06T07:58:14;98859.72;;;20.04;100.00
75136;BME280;63707;52.212;9.540;2023-08-06T08:00:40;98868.13;;;20.37;100.00
75136;BME280;63707;52.212;9.540;2023-08-06T08:03:07;98883.47;;;20.99;100.00
75136;BME280;63707;52.212;9.540;2023-08-06T08:05:33;98890.59;;;20.30;100.00
75136;BME280;63707;52.212;9.540;2023-08-06T08:08:00;98907.09;;;20.59;100.00
75136;BME280;63707;52.212;9.540;2023-08-06T08:10:25;98915.09;;;19.99;100.00
75136;BME280;63707;52.212;9.540;2023-08-06T08:12:51;98918.44;;;19.72;100.00
75136;BME280;63707;52.212;9.540;2023-08-06T08:15:16;98930.22;;;19.59;100.00
75136;BME280;63707;52.212;9.540;2023-08-06T08:17:42;98929.22;;;19.74;100.00
75136;BME280;63707;52.212;9.540;2023-08-06T08:20:08;98934.91;;;20.06;100.00
75136;BME280;63707;52.212;9.540;2023-08-06T08:22:34;98936.03;;;19.58;100.00
75136;BME280;63707;52.212;9.540;2023-08-06T08:25:01;98925.38;;;20.41;100.00
75136;BME280;63707;52.212;9.540;2023-08-06T08:27:26;98926.75;;;19.96;100.00
75136;BME280;63707;52.212;9.540;2023-08-06T08:29:52;98908.50;;;20.75;100.00
75136;BME280;63707;52.212;9.540;2023-08-06T08:32:17;98897.38;;;21.46;100.00
75136;BME280;63707;52.212;9.540;2023-08-06T08:34:43;98899.00;;;21.14;100.00
75136;BME280;63707;52.212;9.540;2023-08-06T08:37:09;98905.00;;;20.89;100.00
75136;BME280;63707;52.212;9.540;2023-08-06T08:39:34;98904.03;;;20.61;100.00
75136;BME280;63707;52.212;9.540;2023-08-06T08:42:02;98890.84;;;20.71;100.00
75136;BME280;63707;52.212;9.540;2023-08-06T08:44:29;98894.66;;;21.27;100.00
75136;BME280;63707;52.212;9.540;2023-08-06T08:46:57;98895.72;;;21.31;100.00
75136;BME280;63707;52.212;9.540;2023-08-06T08:49:23;98894.31;;;20.63;100.00
75136;BME280;63707;52.212;9.540;2023-08-06T08:51:50;98890.78;;;21.42;100.00
75136;BME280;63707;52.212;9.540;2023-08-06T08:54:18;98887.00;;;21.65;100.00
75136;BME280;63707;52.212;9.540;2023-08-06T08:56:45;98886.34;;;22.73;100.00
75136;BME280;63707;52.212;9.540;2023-08-06T08:59:12;98897.03;;;23.02;100.00
75136;BME280;63707;52.212;9.540;2023-08-06T09:01:38;98884.59;;;23.21;100.00
75136;BME280;63707;52.212;9.540;2023-08-06T09:04:05;98894.16;;;24.08;100.00
75136;BME280;63707;52.212;9.540;2023-08-06T09:06:33;98896.22;;;24.34;100.00
75136;BME280;63707;52.212;9.540;2023-08-06T09:09:03;98888.53;;;25.00;100.00
75136;BME280;63707;52.212;9.540;2023-08-06T09:11:35;98889.34;;;24.48;100.00
75136;BME280;63707;52.212;9.540;2023-08-06T09:14:05;98891.00;;;25.01;100.00
75136;BME280;63707;52.212;9.540;2023-08-06T09:16:34;98891.25;;;24.22;100.00
75136;BME280;63707;52.212;9.540;2023-08-06T09:19:06;98892.16;;;24.00;100.00
75136;BME280;63707;52.212;9.540;2023-08-06T09:21:32;98894.09;;;25.17;100.00
75136;BME280;63707;52.212;9.540;2023-08-06T09:23:58;98883.97;;;25.68;100.00
75136;BME280;63707;52.212;9.540;2023-08-06T09:26:24;98890.72;;;23.32;100.00
75136;BME280;63707;52.212;9.540;2023-08-06T09:28:52;98892.75;;;22.59;100.00
75136;BME280;63707;52.212;9.540;2023-08-06T09:31:17;98879.91;;;23.31;100.00
75136;BME280;63707;52.212;9.540;2023-08-06T09:33:44;98892.50;;;24.07;100.00
75136;BME280;63707;52.212;9.540;2023-08-06T09:36:11;98883.59;;;24.28;100.00
75136;BME280;63707;52.212;9.540;2023-08-06T09:38:39;98895.28;;;22.83;100.00
75136;BME280;63707;52.212;9.540;2023-08-06T09:41:05;98897.38;;;22.14;100.00
75136;BME280;63707;52.212;9.540;2023-08-06T09:43:39;98881.31;;;24.30;100.00
75136;BME280;63707;52.212;9.540;2023-08-06T09:46:10;98880.97;;;24.40;100.00
75136;BME280;63707;52.212;9.540;2023-08-06T09:48:37;98888.34;;;22.95;100.00
75136;BME280;63707;52.212;9.540;2023-08-06T09:51:04;98891.00;;;21.73;100.00
75136;BME280;63707;52.212;9.540;2023-08-06T09:53:32;98884.56;;;21.77;100.00
75136;BME280;63707;52.212;9.540;2023-08-06T09:56:00;98884.66;;;21.86;100.00
75136;BME280;63707;52.212;9.540;2023-08-06T09:58:25;98883.63;;;21.68;100.00
75136;BME280;63707;52.212;9.540;2023-08-06T10:00:52;98884.31;;;21.32;100.00
75136;BME280;63707;52.212;9.540;2023-08-06T10:03:18;98877.75;;;21.69;100.00
75136;BME280;63707;52.212;9.540;2023-08-06T10:05:44;98888.03;;;21.55;100.00
75136;BME280;63707;52.212;9.540;2023-08-06T10:08:11;98880.13;;;21.35;100.00
75136;BME280;63707;52.212;9.540;2023-08-06T10:10:36;98869.44;;;20.77;100.00
75136;BME280;63707;52.212;9.540;2023-08-06T10:13:03;98877.31;;;20.89;100.00
75136;BME280;63707;52.212;9.540;2023-08-06T10:15:32;98869.91;;;20.28;100.00
75136;BME280;63707;52.212;9.540;2023-08-06T10:17:59;98871.22;;;19.93;100.00
75136;BME280;63707;52.212;9.540;2023-08-06T10:20:26;98870.91;;;20.37;100.00
75136;BME280;63707;52.212;9.540;2023-08-06T10:23:00;98867.19;;;20.47;100.00
75136;BME280;63707;52.212;9.540;2023-08-06T10:25:30;98858.78;;;20.52;100.00
75136;BME280;63707;52.212;9.540;2023-08-06T10:27:56;98855.00;;;20.48;100.00
75136;BME280;63707;52.212;9.540;2023-08-06T10:30:26;98857.44;;;20.49;100.00
75136;BME280;63707;52.212;9.540;2023-08-06T10:32:55;98856.22;;;20.74;100.00
75136;BME280;63707;52.212;9.540;2023-08-06T10:35:34;98857.28;;;20.59;100.00
75136;BME280;63707;52.212;9.540;2023-08-06T10:38:03;98844.97;;;20.52;100.00
75136;BME280;63707;52.212;9.540;2023-08-06T10:40:31;98850.72;;;20.36;100.00
75136;BME280;63707;52.212;9.540;2023-08-06T10:42:59;98844.75;;;20.48;100.00
75136;BME280;63707;52.212;9.540;2023-08-06T10:45:24;98850.50;;;20.52;100.00
75136;BME280;63707;52.212;9.540;2023-08-06T10:47:54;98851.00;;;19.73;100.00
75136;BME280;63707;52.212;9.540;2023-08-06T10:50:21;98853.53;;;19.46;100.00
75136;BME280;63707;52.212;9.540;2023-08-06T10:52:47;98848.75;;;19.52;100.00
75136;BME280;63707;52.212;9.540;2023-08-06T10:55:13;98843.50;;;20.17;100.00
75136;BME280;63707;52.212;9.540;2023-08-06T10:57:40;98842.44;;;20.31;100.00
75136;BME280;63707;52.212;9.540;2023-08-06T11:00:07;98837.09;;;20.21;100.00
75136;BME280;63707;52.212;9.540;2023-08-06T11:02:34;98841.72;;;20.63;100.00
75136;BME280;63707;52.212;9.540;2023-08-06T11:05:05;98842.66;;;20.91;100.00
75136;BME280;63707;52.212;9.540;2023-08-06T11:07:30;98845.94;;;20.42;100.00
75136;BME280;63707;52.212;9.540;2023-08-06T11:10:01;98837.75;;;20.69;100.00
75136;BME280;63707;52.212;9.540;2023-08-06T11:12:27;98840.41;;;21.07;100.00
75136;BME280;63707;52.212;9.540;2023-08-06T11:14:54;98836.81;;;21.06;100.00
75136;BME280;63707;52.212;9.540;2023-08-06T11:17:21;98832.69;;;21.36;100.00
75136;BME280;63707;52.212;9.540;2023-08-06T11:19:46;98824.19;;;21.33;100.00
75136;BME280;63707;52.212;9.540;2023-08-06T11:22:12;98804.44;;;22.84;100.00
75136;BME280;63707;52.212;9.540;2023-08-06T11:24:37;98812.84;;;22.92;100.00
75136;BME280;63707;52.212;9.540;2023-08-06T11:27:11;98814.00;;;22.55;100.00
75136;BME280;63707;52.212;9.540;2023-08-06T11:29:37;98809.50;;;23.13;100.00
75136;BME280;63707;52.212;9.540;2023-08-06T11:32:05;98805.00;;;22.95;100.00
75136;BME280;63707;52.212;9.540;2023-08-06T11:34:30;98815.56;;;23.54;100.00
75136;BME280;63707;52.212;9.540;2023-08-06T11:36:56;98812.88;;;23.32;100.00
75136;BME280;63707;52.212;9.540;2023-08-06T11:39:22;98811.22;;;24.45;100.00
75136;BME280;63707;52.212;9.540;2023-08-06T11:41:48;98804.59;;;25.48;100.00
75136;BME280;63707;52.212;9.540;2023-08-06T11:44:14;98810.22;;;25.78;100.00
75136;BME280;63707;52.212;9.540;2023-08-06T11:46:52;98817.97;;;25.72;100.00
75136;BME280;63707;52.212;9.540;2023-08-06T11:49:20;98811.38;;;26.27;100.00
75136;BME280;63707;52.212;9.540;2023-08-06T11:51:47;98811.78;;;26.17;100.00
75136;BME280;63707;52.212;9.540;2023-08-06T11:54:13;98805.06;;;24.95;100.00
75136;BME280;63707;52.212;9.540;2023-08-06T11:56:38;98798.38;;;23.92;100.00
75136;BME280;63707;52.212;9.540;2023-08-06T11:59:04;98797.47;;;22.95;100.00
75136;BME280;63707;52.212;9.540;2023-08-06T12:01:30;98788.69;;;23.33;100.00
75136;BME280;63707;52.212;9.540;2023-08-06T12:03:58;98795.44;;;23.09;100.00
75136;BME280;63707;52.212;9.540;2023-08-06T12:06:28;98784.16;;;24.71;100.00
75136;BME280;63707;52.212;9.540;2023-08-06T12:08:53;98799.03;;;24.06;100.00
75136;BME280;63707;52.212;9.540;2023-08-06T12:11:21;98797.41;;;23.48;100.00
75136;BME280;63707;52.212;9.540;2023-08-06T12:13:50;98801.44;;;23.03;100.00
75136;BME280;63707;52.212;9.540;2023-08-06T12:16:16;98804.75;;;22.38;100.00
75136;BME280;63707;52.212;9.540;2023-08-06T12:18:44;98796.00;;;21.94;100.00
75136;BME280;63707;52.212;9.540;2023-08-06T12:21:09;98797.91;;;21.58;100.00
75136;BME280;63707;52.212;9.540;2023-08-06T12:23:36;98799.63;;;21.81;100.00
75136;BME280;63707;52.212;9.540;2023-08-06T12:26:01;98793.16;;;21.58;100.00
75136;BME280;63707;52.212;9.540;2023-08-06T12:28:27;98801.34;;;21.22;100.00
75136;BME280;63707;52.212;9.540;2023-08-06T12:30:52;98793.91;;;21.36;100.00
75136;BME280;63707;52.212;9.540;2023-08-06T12:33:20;98798.34;;;20.91;100.00
75136;BME280;63707;52.212;9.540;2023-08-06T12:35:45;98783.31;;;21.25;100.00
75136;BME280;63707;52.212;9.540;2023-08-06T12:38:11;98999.72;;;21.23;100.00
75136;BME280;63707;52.212;9.540;2023-08-06T12:40:38;98790.94;;;21.33;100.00
75136;BME280;63707;52.212;9.540;2023-08-06T12:43:03;98794.00;;;21.59;100.00
75136;BME280;63707;52.212;9.540;2023-08-06T12:45:29;98786.09;;;21.39;100.00